This is the latest recevied weather packets stored in our database for station/object EA7BW-10. If no packets are shown the sender has not sent any weather packets the latest 10 day(s).
| Time | Temp. | Humidity | Pressure | Rain* | Wind** | Luminosity | Snow |
|---|---|---|---|---|---|---|---|
| 1777645389 | 33.89° C | 34% | 1011.5 hPa | - | - | - | - |
| 1777644189 | 33.33° C | 36% | 1011.7 hPa | - | - | - | - |
| 1777642989 | 32.78° C | 36% | 1011.8 hPa | - | - | - | - |
| 1777641789 | 33.89° C | 35% | 1012 hPa | - | - | - | - |
| 1777640589 | 33.33° C | 37% | 1012.2 hPa | - | - | - | - |
| 1777639388 | 32.78° C | 38% | 1012.3 hPa | - | - | - | - |
| 1777638188 | 32.22° C | 38% | 1012.5 hPa | - | - | - | - |
| 1777636988 | 32.78° C | 39% | 1012.7 hPa | - | - | - | - |
| 1777635788 | 33.33° C | 39% | 1012.7 hPa | - | - | - | - |
| 1777634588 | 31.11° C | 42% | 1013 hPa | - | - | - | - |
| 1777633388 | 32.22° C | 41% | 1013.2 hPa | - | - | - | - |
| 1777632188 | 33.33° C | 39% | 1013.4 hPa | - | - | - | - |
| 1777630988 | 31.11° C | 42% | 1013.4 hPa | - | - | - | - |
| 1777629788 | 30.56° C | 43% | 1013.6 hPa | - | - | - | - |
| 1777628587 | 31.11° C | 42% | 1013.7 hPa | - | - | - | - |
| 1777627387 | 30.56° C | 42% | 1013.9 hPa | - | - | - | - |
| 1777626187 | 30° C | 43% | 1013.9 hPa | - | - | - | - |
| 1777624987 | 28.89° C | 45% | 1013.8 hPa | - | - | - | - |
| 1777623787 | 27.22° C | 46% | 1013.8 hPa | - | - | - | - |
| 1777622587 | 24.44° C | 48% | 1013.7 hPa | - | - | - | - |
| 1777621387 | 21.11° C | 52% | 1013.7 hPa | - | - | - | - |
| 1777620187 | 20.56° C | 51% | 1013.7 hPa | - | - | - | - |
| 1777618986 | 17.22° C | 55% | 1013.9 hPa | - | - | - | - |
| 1777617786 | 16.11° C | 56% | 1013.8 hPa | - | - | - | - |
| 1777616586 | 15° C | 57% | 1013.5 hPa | - | - | - | - |
* Rain since midnight (hover to see other rain measurements)
** Current wind speed in m/s (hover to see current wind gust speed)